Time;durP1;ratioP1;P1;durP2;ratioP2;P2;SDS_P1;SDS_P2;PMS_P1;PMS_P2;Temp;Humidity;BMP_temperature;BMP_pressure;BME280_temperature;BME280_humidity;BME280_pressure;Samples;Min_cycle;Max_cycle;Signal;HPM_P1;HPM_P2
2022/11/27 00:01:44;;;;;;;19.33;4.13;;;7.40;99.90;;;;;;5058410;28;20316;-64
2022/11/27 00:04:11;;;;;;;12.57;4.10;;;7.40;99.90;;;;;;5057850;28;20048;-64
2022/11/27 00:06:38;;;;;;;15.20;4.30;;;7.40;99.90;;;;;;5058077;28;20056;-64
2022/11/27 00:09:09;;;;;;;13.02;4.20;;;7.40;99.90;;;;;;5058801;28;20436;-63
2022/11/27 00:11:38;;;;;;;12.75;4.55;;;7.40;99.90;;;;;;5058829;28;20461;-65
2022/11/27 00:14:04;;;;;;;10.85;4.13;;;7.40;99.90;;;;;;5058733;28;20070;-63
2022/11/27 00:16:30;;;;;;;13.23;4.60;;;7.40;99.90;;;;;;5058742;28;20085;-64
2022/11/27 00:18:56;;;;;;;15.30;4.60;;;7.40;99.90;;;;;;5058659;28;20107;-64
2022/11/27 00:21:25;;;;;;;10.48;4.13;;;7.40;99.90;;;;;;5058670;28;20043;-64
2022/11/27 00:23:52;;;;;;;15.88;4.60;;;7.40;99.90;;;;;;5058466;28;20278;-65
2022/11/27 00:26:18;;;;;;;16.33;5.43;;;7.50;99.90;;;;;;5057994;28;20083;-64
2022/11/27 00:28:44;;;;;;;9.82;4.15;;;7.60;99.90;;;;;;5057578;28;20067;-64
2022/11/27 00:31:36;;;;;;;16.55;4.75;;;7.60;99.90;;;;;;5058230;28;20099;-65
2022/11/27 00:34:05;;;;;;;17.83;4.70;;;7.60;99.90;;;;;;5055781;28;20398;-67
2022/11/27 00:36:32;;;;;;;12.15;4.15;;;7.60;99.90;;;;;;5040950;28;20385;-64
2022/11/27 00:38:59;;;;;;;13.48;4.63;;;7.60;99.90;;;;;;5040951;28;20375;-65
2022/11/27 00:41:27;;;;;;;14.45;4.30;;;7.60;99.90;;;;;;5058567;28;20083;-65
2022/11/27 00:43:53;;;;;;;13.35;3.95;;;7.60;99.90;;;;;;5040800;28;20128;-65
2022/11/27 00:46:21;;;;;;;8.57;3.92;;;7.60;99.90;;;;;;5057988;28;20028;-64
2022/11/27 00:48:47;;;;;;;13.50;4.00;;;7.60;99.90;;;;;;5040651;28;20120;-65
2022/11/27 00:51:17;;;;;;;14.73;3.88;;;7.60;99.90;;;;;;5040817;28;20064;-66
2022/11/27 00:53:44;;;;;;;12.18;3.97;;;7.60;99.90;;;;;;5058167;28;20029;-65
2022/11/27 00:56:15;;;;;;;12.23;4.03;;;7.60;99.90;;;;;;5057892;28;20108;-64
2022/11/27 00:58:40;;;;;;;11.48;3.33;;;7.60;99.90;;;;;;5057060;28;20033;-66
2022/11/27 01:01:07;;;;;;;14.25;4.32;;;7.70;99.90;;;;;;5040493;28;20025;-64
2022/11/27 01:03:34;;;;;;;12.75;4.03;;;7.70;99.90;;;;;;5057062;28;20331;-64
2022/11/27 01:06:04;;;;;;;12.85;4.10;;;7.70;99.90;;;;;;5040171;28;20132;-64
2022/11/27 01:08:30;;;;;;;21.13;4.38;;;7.70;99.90;;;;;;5056897;28;20086;-65
2022/11/27 01:10:58;;;;;;;15.27;3.97;;;7.70;99.90;;;;;;5040447;28;20057;-65
2022/11/27 01:13:25;;;;;;;14.07;3.63;;;7.70;99.90;;;;;;5057027;28;20036;-64
2022/11/27 01:15:59;;;;;;;14.23;3.95;;;7.70;99.90;;;;;;5057365;28;20024;-64
2022/11/27 01:18:25;;;;;;;14.90;4.05;;;7.80;99.90;;;;;;5056673;28;20444;-65
2022/11/27 01:20:52;;;;;;;12.13;4.07;;;7.80;99.90;;;;;;5057474;28;20112;-65
2022/11/27 01:23:19;;;;;;;11.60;3.45;;;7.80;99.90;;;;;;5057514;28;20044;-64
2022/11/27 01:25:45;;;;;;;7.80;3.00;;;7.80;99.90;;;;;;5056638;28;20039;-64
2022/11/27 01:28:10;;;;;;;12.30;3.88;;;7.80;99.90;;;;;;5057319;28;20052;-64
2022/11/27 01:30:37;;;;;;;9.82;3.88;;;7.80;99.90;;;;;;5039981;28;20418;-65
2022/11/27 01:33:03;;;;;;;9.68;3.40;;;7.80;99.90;;;;;;5056433;28;20037;-63
2022/11/27 01:35:29;;;;;;;14.18;3.55;;;7.80;99.90;;;;;;5057186;28;20025;-64
2022/11/27 01:37:55;;;;;;;13.30;3.55;;;7.80;99.90;;;;;;5056364;28;20029;-64
2022/11/27 01:40:21;;;;;;;11.55;3.17;;;7.90;99.90;;;;;;5039897;28;20123;-65
2022/11/27 01:42:47;;;;;;;9.18;3.05;;;7.80;99.90;;;;;;5056362;28;20285;-64
2022/11/27 01:45:16;;;;;;;9.98;3.05;;;7.80;99.90;;;;;;5039648;28;20098;-64
2022/11/27 01:47:53;;;;;;;9.73;3.60;;;7.70;99.90;;;;;;5056999;28;20360;-64
2022/11/27 01:50:23;;;;;;;7.13;2.78;;;7.80;99.90;;;;;;5058136;28;20376;-65
2022/11/27 01:52:58;;;;;;;9.13;2.67;;;7.80;99.90;;;;;;5056237;28;20021;-63
2022/11/27 01:55:32;;;;;;;10.02;3.22;;;7.80;99.90;;;;;;5057550;28;20296;-64
2022/11/27 01:58:03;;;;;;;14.35;3.17;;;7.90;99.90;;;;;;5056135;28;20033;-64
2022/11/27 02:00:29;;;;;;;7.22;2.42;;;7.90;99.90;;;;;;5056240;28;20028;-64
2022/11/27 02:02:55;;;;;;;9.52;2.55;;;7.80;99.90;;;;;;5023097;28;20037;-64
2022/11/27 02:05:24;;;;;;;8.35;2.70;;;7.70;99.90;;;;;;5039409;28;20492;-64
2022/11/27 02:07:51;;;;;;;10.73;2.55;;;7.80;99.90;;;;;;5056685;28;20032;-63
2022/11/27 02:10:18;;;;;;;8.40;3.05;;;7.80;99.90;;;;;;5056052;28;20025;-64
2022/11/27 02:12:59;;;;;;;8.32;2.28;;;7.80;99.90;;;;;;5056796;28;20040;-62
2022/11/27 02:15:31;;;;;;;9.52;2.60;;;7.80;99.90;;;;;;5056047;28;20037;-63
2022/11/27 02:18:18;;;;;;;10.00;2.70;;;7.70;99.90;;;;;;5056736;28;20040;-64
2022/11/27 02:21:05;;;;;;;6.10;2.35;;;7.80;99.90;;;;;;5056860;28;20061;-64
2022/11/27 02:23:49;;;;;;;9.27;2.40;;;7.80;99.90;;;;;;5056847;28;20048;-65
2022/11/27 02:26:40;;;;;;;7.15;2.47;;;7.90;99.90;;;;;;5039342;28;20044;-65
2022/11/27 02:29:09;;;;;;;10.98;2.85;;;7.80;99.90;;;;;;5058558;28;20094;-65
2022/11/27 02:32:03;;;;;;;7.85;2.33;;;7.70;99.90;;;;;;5061241;28;20304;-64
2022/11/27 02:34:44;;;;;;;7.70;2.30;;;7.70;99.90;;;;;;5058349;28;20048;-65
2022/11/27 02:37:23;;;;;;;8.38;2.47;;;7.80;99.90;;;;;;5043103;28;20025;-64
2022/11/27 02:40:10;;;;;;;8.52;2.30;;;7.80;99.90;;;;;;5059726;28;20021;-64
2022/11/27 02:43:01;;;;;;;6.28;2.35;;;7.80;99.90;;;;;;5059619;28;20032;-64
2022/11/27 02:45:38;;;;;;;7.07;2.10;;;7.80;99.90;;;;;;5060913;28;20025;-64
2022/11/27 02:48:05;;;;;;;9.05;2.30;;;7.90;99.90;;;;;;5059908;28;20468;-63
2022/11/27 02:50:33;;;;;;;5.47;2.65;;;7.90;99.90;;;;;;5060302;28;20070;-64
2022/11/27 02:53:05;;;;;;;9.73;2.40;;;7.90;99.90;;;;;;5059469;28;20033;-64
2022/11/27 02:55:33;;;;;;;5.10;2.13;;;8.00;99.90;;;;;;5060566;28;20060;-65
2022/11/27 02:58:04;;;;;;;6.70;2.63;;;7.90;99.90;;;;;;5060172;28;20106;-64
2022/11/27 03:00:33;;;;;;;9.75;2.38;;;7.90;99.90;;;;;;5059377;28;20371;-64
2022/11/27 03:03:03;;;;;;;6.82;2.08;;;7.90;99.90;;;;;;5059398;28;20282;-64
2022/11/27 03:05:33;;;;;;;5.53;2.22;;;7.90;99.90;;;;;;5059747;28;20106;-64
2022/11/27 03:08:08;;;;;;;5.10;2.03;;;8.00;99.90;;;;;;5060155;28;20033;-65
2022/11/27 03:10:50;;;;;;;5.47;2.30;;;8.10;99.90;;;;;;5059220;28;20024;-66
2022/11/27 03:13:16;;;;;;;3.50;1.88;;;8.10;99.90;;;;;;5059934;28;20029;-64
2022/11/27 03:16:12;;;;;;;7.93;2.03;;;8.00;99.90;;;;;;5059298;28;20025;-64
2022/11/27 03:18:40;;;;;;;6.03;2.05;;;7.90;99.90;;;;;;5050267;28;20074;-64
2022/11/27 03:21:24;;;;;;;8.45;2.25;;;8.00;99.90;;;;;;5059737;28;20057;-64
2022/11/27 03:23:50;;;;;;;4.18;2.20;;;7.90;99.90;;;;;;5059638;28;20021;-66
2022/11/27 03:26:16;;;;;;;8.35;2.40;;;7.80;99.90;;;;;;5059688;28;20029;-64
2022/11/27 03:28:43;;;;;;;11.45;2.60;;;7.80;99.90;;;;;;5059519;28;20078;-64
2022/11/27 03:31:10;;;;;;;7.32;1.95;;;7.80;99.90;;;;;;5042352;28;20411;-64
2022/11/27 03:33:36;;;;;;;6.47;2.10;;;7.90;99.90;;;;;;5059416;28;20040;-64
2022/11/27 03:36:08;;;;;;;5.97;2.10;;;7.80;99.90;;;;;;5025713;28;20404;-65
2022/11/27 03:38:34;;;;;;;4.85;1.60;;;7.90;99.90;;;;;;5059508;28;20312;-65
2022/11/27 03:41:08;;;;;;;5.57;2.10;;;7.80;99.90;;;;;;5059293;28;20033;-64
2022/11/27 03:43:42;;;;;;;6.88;2.17;;;7.80;99.90;;;;;;5059455;28;20389;-64
2022/11/27 03:46:27;;;;;;;5.82;1.95;;;7.80;99.90;;;;;;5058566;28;20036;-64
2022/11/27 03:49:11;;;;;;;8.18;2.30;;;7.90;99.90;;;;;;5041818;28;20032;-64
2022/11/27 03:52:22;;;;;;;7.57;1.85;;;7.90;99.90;;;;;;5059316;28;20025;-65
2022/11/27 03:55:06;;;;;;;8.02;2.33;;;7.80;99.90;;;;;;5058356;28;20037;-65
2022/11/27 03:57:57;;;;;;;4.97;1.77;;;7.80;99.90;;;;;;5058273;28;20281;-64
2022/11/27 04:00:23;;;;;;;6.07;2.10;;;7.80;99.90;;;;;;5056315;28;20064;-64
2022/11/27 04:02:51;;;;;;;5.20;2.15;;;7.80;99.90;;;;;;5058107;28;20037;-65
2022/11/27 04:05:18;;;;;;;6.45;1.67;;;7.80;99.90;;;;;;5058737;28;20044;-64
2022/11/27 04:07:44;;;;;;;4.97;2.00;;;7.80;99.90;;;;;;5058154;28;20033;-64
2022/11/27 04:10:11;;;;;;;6.07;1.90;;;7.90;99.90;;;;;;5058865;28;20035;-64
2022/11/27 04:12:37;;;;;;;8.60;2.25;;;7.80;99.90;;;;;;5058078;28;20389;-64
2022/11/27 04:15:04;;;;;;;5.32;2.10;;;7.80;99.90;;;;;;5058679;28;20037;-64
2022/11/27 04:17:31;;;;;;;4.80;1.70;;;7.70;99.90;;;;;;5058211;28;20043;-64
2022/11/27 04:19:56;;;;;;;6.57;1.77;;;7.80;99.90;;;;;;5058707;28;20091;-64
2022/11/27 04:22:22;;;;;;;8.38;2.17;;;7.90;99.90;;;;;;5057868;28;20055;-64
2022/11/27 04:24:48;;;;;;;4.03;1.80;;;7.80;99.90;;;;;;5058538;28;20427;-64
2022/11/27 04:27:14;;;;;;;5.20;2.10;;;7.70;99.90;;;;;;5057729;28;20366;-63
2022/11/27 04:29:39;;;;;;;5.97;1.98;;;7.80;99.90;;;;;;5058512;28;20025;-63
2022/11/27 04:32:05;;;;;;;6.75;2.17;;;7.90;99.90;;;;;;5040857;28;20029;-64
2022/11/27 04:34:32;;;;;;;5.63;1.77;;;8.00;99.90;;;;;;5057560;28;20040;-63
2022/11/27 04:36:58;;;;;;;5.38;2.00;;;8.10;99.90;;;;;;5040962;28;20131;-64
2022/11/27 04:39:23;;;;;;;5.57;1.85;;;8.10;99.90;;;;;;5057601;28;20118;-63
2022/11/27 04:41:49;;;;;;;5.75;1.83;;;8.00;99.90;;;;;;5040881;28;20119;-63
2022/11/27 04:44:15;;;;;;;7.30;2.22;;;8.00;99.90;;;;;;5040835;28;20128;-63
2022/11/27 04:46:41;;;;;;;5.43;1.88;;;8.00;99.90;;;;;;5057326;28;20033;-63
2022/11/27 04:49:09;;;;;;;5.93;1.67;;;8.10;99.90;;;;;;5057369;28;20380;-63
2022/11/27 04:51:35;;;;;;;5.93;2.03;;;8.10;99.90;;;;;;5056348;28;20060;-63
2022/11/27 04:54:01;;;;;;;12.98;7.53;;;8.10;99.90;;;;;;5057464;28;20021;-63
2022/11/27 04:56:27;;;;;;;4.40;1.98;;;8.00;99.90;;;;;;5057719;28;20356;-65
2022/11/27 04:58:53;;;;;;;6.72;1.90;;;7.90;99.90;;;;;;5040554;28;20121;-64
2022/11/27 05:01:19;;;;;;;5.70;2.15;;;7.80;99.90;;;;;;5056963;28;20095;-64
2022/11/27 05:03:46;;;;;;;7.28;2.30;;;7.80;99.90;;;;;;5057805;28;20446;-66
2022/11/27 05:06:12;;;;;;;7.53;2.17;;;7.90;99.90;;;;;;5056783;28;20143;-65
2022/11/27 05:08:38;;;;;;;6.15;1.85;;;7.90;99.90;;;;;;5057110;28;20452;-65
2022/11/27 05:11:07;;;;;;;4.50;2.17;;;7.70;99.90;;;;;;5058145;28;20084;-65
2022/11/27 05:13:33;;;;;;;4.65;2.03;;;7.60;99.90;;;;;;5056862;28;20336;-65
2022/11/27 05:16:00;;;;;;;5.13;2.30;;;7.60;99.90;;;;;;5057615;28;20021;-65
2022/11/27 05:18:26;;;;;;;6.07;2.65;;;7.70;99.90;;;;;;5057434;28;20111;-65
2022/11/27 05:21:06;;;;;;;6.38;2.30;;;7.80;99.90;;;;;;5023840;28;20075;-65
2022/11/27 05:23:33;;;;;;;6.03;2.72;;;7.70;99.90;;;;;;5056584;28;20427;-65
2022/11/27 05:25:59;;;;;;;6.35;2.63;;;7.60;99.90;;;;;;5056533;28;20351;-65
2022/11/27 05:28:25;;;;;;;7.60;2.60;;;7.60;99.90;;;;;;5057394;28;20048;-65
2022/11/27 05:30:51;;;;;;;6.00;2.53;;;7.60;99.90;;;;;;5056370;28;20060;-65
2022/11/27 05:33:17;;;;;;;7.82;2.38;;;7.50;99.90;;;;;;5040087;28;20359;-65
2022/11/27 05:35:44;;;;;;;8.75;2.30;;;7.50;99.90;;;;;;5056533;28;20396;-66
2022/11/27 05:38:11;;;;;;;6.30;2.75;;;7.50;99.90;;;;;;5057126;28;20304;-65
2022/11/27 05:40:37;;;;;;;5.80;2.30;;;7.50;99.90;;;;;;5039820;28;20293;-65
2022/11/27 05:43:03;;;;;;;7.30;2.90;;;7.50;99.90;;;;;;5057021;28;20336;-65
2022/11/27 05:45:29;;;;;;;7.43;2.58;;;7.60;99.90;;;;;;5056193;28;20061;-64
2022/11/27 05:47:54;;;;;;;8.10;3.08;;;7.50;99.90;;;;;;5056440;28;20049;-66
2022/11/27 05:50:20;;;;;;;6.88;3.00;;;7.50;99.90;;;;;;5056930;28;20116;-65
2022/11/27 05:52:46;;;;;;;7.85;3.25;;;7.50;99.90;;;;;;5056189;28;20312;-65
2022/11/27 05:55:12;;;;;;;8.50;2.90;;;7.40;99.90;;;;;;5039602;28;20025;-65
2022/11/27 05:57:38;;;;;;;6.75;2.90;;;7.60;99.90;;;;;;5057238;28;20037;-65
2022/11/27 06:00:05;;;;;;;6.07;3.17;;;7.50;99.90;;;;;;5057006;28;20037;-65
2022/11/27 06:02:31;;;;;;;7.57;3.20;;;7.50;99.90;;;;;;5055749;28;20214;-65
2022/11/27 06:04:57;;;;;;;6.25;2.80;;;7.50;99.90;;;;;;5055863;28;20052;-63
2022/11/27 06:07:23;;;;;;;7.72;2.75;;;7.50;99.90;;;;;;5056107;28;20308;-65
2022/11/27 06:09:49;;;;;;;8.65;2.97;;;7.40;99.90;;;;;;5055947;28;20017;-65
2022/11/27 06:12:15;;;;;;;7.60;3.17;;;7.50;99.90;;;;;;5056075;28;20351;-66
2022/11/27 06:14:40;;;;;;;8.75;3.22;;;7.50;99.90;;;;;;5055900;28;20033;-66
2022/11/27 06:17:06;;;;;;;6.85;2.95;;;7.60;99.90;;;;;;5056671;28;20483;-64
2022/11/27 06:19:32;;;;;;;5.60;3.05;;;7.60;99.90;;;;;;5056725;28;20406;-65
2022/11/27 06:21:58;;;;;;;9.38;3.40;;;7.50;99.90;;;;;;5056758;28;20061;-65
2022/11/27 06:24:23;;;;;;;6.38;3.10;;;7.40;99.90;;;;;;5055963;28;20029;-65
2022/11/27 06:26:49;;;;;;;7.55;3.33;;;7.40;99.90;;;;;;5056627;28;20025;-64
2022/11/27 06:29:15;;;;;;;8.95;3.53;;;7.40;99.90;;;;;;5056633;28;20029;-66
2022/11/27 06:31:41;;;;;;;8.45;3.10;;;7.40;99.90;;;;;;5056585;28;20029;-65
2022/11/27 06:34:07;;;;;;;9.25;3.13;;;7.40;99.90;;;;;;5039661;28;20062;-65
2022/11/27 06:36:38;;;;;;;9.57;3.40;;;7.40;99.90;;;;;;5056584;28;20049;-66
2022/11/27 06:39:05;;;;;;;5.83;2.97;;;7.40;99.90;;;;;;5056523;28;20342;-65
2022/11/27 06:41:32;;;;;;;7.40;3.40;;;7.40;99.90;;;;;;5055860;28;20276;-66
2022/11/27 06:43:59;;;;;;;7.93;3.38;;;7.40;99.90;;;;;;5055643;28;20040;-65
2022/11/27 06:46:26;;;;;;;6.63;3.08;;;7.50;99.90;;;;;;5055863;28;20040;-66
2022/11/27 06:48:53;;;;;;;8.75;2.67;;;7.50;99.90;;;;;;5055762;28;20106;-65
2022/11/27 06:51:22;;;;;;;8.18;3.70;;;7.40;99.90;;;;;;5055595;28;20025;-65
2022/11/27 06:53:50;;;;;;;6.68;3.30;;;7.40;99.90;;;;;;5055736;28;20174;-65
2022/11/27 06:56:19;;;;;;;9.52;3.30;;;7.50;99.90;;;;;;5038993;28;20401;-65
2022/11/27 06:58:49;;;;;;;5.50;3.35;;;7.50;99.90;;;;;;5056325;28;20153;-65
2022/11/27 07:01:16;;;;;;;7.03;3.40;;;7.50;99.90;;;;;;5055898;28;20094;-66
2022/11/27 07:03:42;;;;;;;8.50;3.58;;;7.50;99.90;;;;;;5039100;28;20055;-66
2022/11/27 07:06:10;;;;;;;9.90;3.80;;;7.50;99.90;;;;;;5056099;28;20302;-66
2022/11/27 07:08:37;;;;;;;7.95;3.63;;;7.60;99.90;;;;;;5056286;28;20021;-66
2022/11/27 07:11:09;;;;;;;9.75;3.83;;;7.50;99.90;;;;;;5055511;28;20053;-66
2022/11/27 07:13:35;;;;;;;8.20;3.45;;;7.50;99.90;;;;;;5056346;28;20355;-66
2022/11/27 07:16:02;;;;;;;8.20;3.33;;;7.50;99.90;;;;;;5059487;28;20075;-65
2022/11/27 07:18:29;;;;;;;9.48;3.17;;;7.50;99.90;;;;;;5059059;28;20388;-66
2022/11/27 07:20:55;;;;;;;6.15;3.25;;;7.50;99.90;;;;;;5042316;28;20044;-65
2022/11/27 07:23:21;;;;;;;4.60;2.97;;;7.50;99.90;;;;;;5059688;28;20060;-65
2022/11/27 07:25:47;;;;;;;10.35;3.75;;;7.50;99.90;;;;;;5059711;28;20396;-65
2022/11/27 07:28:13;;;;;;;7.85;4.10;;;7.60;99.90;;;;;;5058831;28;20056;-65
2022/11/27 07:30:39;;;;;;;8.38;3.83;;;7.60;99.90;;;;;;5059563;28;20037;-65
2022/11/27 07:33:04;;;;;;;7.00;3.55;;;7.60;99.90;;;;;;5059404;28;20047;-65
2022/11/27 07:35:30;;;;;;;9.25;3.53;;;7.60;99.90;;;;;;5059989;28;20029;-64
2022/11/27 07:37:56;;;;;;;9.05;3.63;;;7.60;99.90;;;;;;5058760;28;20092;-65
2022/11/27 07:40:22;;;;;;;6.95;3.63;;;7.60;99.90;;;;;;5059378;28;20028;-65
2022/11/27 07:42:48;;;;;;;8.75;3.28;;;7.80;99.90;;;;;;5042096;28;20041;-65
2022/11/27 07:45:16;;;;;;;11.80;3.90;;;7.70;99.90;;;;;;5058491;28;20477;-65
2022/11/27 07:47:42;;;;;;;7.40;3.53;;;7.60;99.90;;;;;;5058474;28;20025;-65
2022/11/27 07:50:09;;;;;;;8.10;4.18;;;7.60;99.90;;;;;;5058519;28;20087;-67
2022/11/27 07:52:36;;;;;;;7.32;3.30;;;7.60;99.90;;;;;;5058157;28;20033;-66
2022/11/27 07:55:02;;;;;;;9.57;3.70;;;7.60;99.90;;;;;;5041601;28;20118;-68
2022/11/27 07:57:28;;;;;;;10.45;3.53;;;7.60;99.90;;;;;;5058823;28;20027;-67
2022/11/27 07:59:54;;;;;;;9.75;3.92;;;7.60;99.90;;;;;;5058030;28;20312;-66
2022/11/27 08:02:20;;;;;;;10.88;4.05;;;7.60;99.90;;;;;;5041483;28;20115;-67
2022/11/27 08:04:45;;;;;;;7.72;3.58;;;7.60;99.90;;;;;;5058688;28;20076;-67
2022/11/27 08:07:12;;;;;;;9.95;3.67;;;7.60;99.90;;;;;;5059108;28;20048;-68
2022/11/27 08:09:38;;;;;;;7.78;3.83;;;7.70;99.90;;;;;;5025021;28;20094;-69
2022/11/27 08:12:05;;;;;;;7.05;3.75;;;7.70;99.90;;;;;;5058803;28;20021;-66
2022/11/27 08:14:32;;;;;;;9.00;4.38;;;7.70;99.90;;;;;;5058692;28;20056;-68
2022/11/27 08:16:57;;;;;;;7.85;4.03;;;7.70;99.90;;;;;;5058644;28;20270;-67
2022/11/27 08:19:24;;;;;;;8.57;3.47;;;7.70;99.90;;;;;;5024844;28;20154;-68
2022/11/27 08:21:50;;;;;;;7.00;3.85;;;7.80;99.90;;;;;;5058519;28;20103;-68
2022/11/27 08:24:16;;;;;;;9.40;4.32;;;7.80;99.90;;;;;;5058416;28;20029;-67
2022/11/27 08:26:42;;;;;;;7.32;3.72;;;7.90;99.90;;;;;;5041044;28;20085;-67
2022/11/27 08:29:11;;;;;;;8.38;4.40;;;7.90;99.90;;;;;;5041336;28;20029;-67
2022/11/27 08:31:36;;;;;;;8.68;3.75;;;7.90;99.90;;;;;;5058401;28;20033;-66
2022/11/27 08:34:02;;;;;;;9.80;4.28;;;8.10;99.90;;;;;;5041081;28;20212;-67
2022/11/27 08:36:28;;;;;;;11.20;4.63;;;8.00;99.90;;;;;;5057650;28;20033;-66
2022/11/27 08:38:54;;;;;;;9.52;4.20;;;8.00;99.90;;;;;;5057739;28;20029;-67
2022/11/27 08:41:20;;;;;;;10.25;4.70;;;8.00;99.90;;;;;;5040941;28;20087;-65
2022/11/27 08:43:46;;;;;;;11.05;4.50;;;7.90;99.90;;;;;;5058234;28;20037;-65
2022/11/27 08:46:12;;;;;;;7.82;3.95;;;7.90;99.90;;;;;;5057286;28;20119;-67
2022/11/27 08:48:39;;;;;;;10.05;4.22;;;7.90;99.90;;;;;;5057418;28;20027;-67
2022/11/27 08:51:10;;;;;;;8.40;4.15;;;7.90;99.90;;;;;;5058068;28;20039;-67
2022/11/27 08:53:36;;;;;;;9.60;4.70;;;7.90;99.90;;;;;;5040682;28;20082;-66
2022/11/27 08:56:17;;;;;;;7.40;3.83;;;7.90;99.90;;;;;;5057937;28;20033;-64
2022/11/27 08:58:43;;;;;;;9.98;4.50;;;7.90;99.90;;;;;;5057302;28;20044;-65
2022/11/27 09:01:14;;;;;;;7.50;3.90;;;7.80;99.90;;;;;;5057230;28;20029;-66
2022/11/27 09:03:39;;;;;;;8.05;3.88;;;7.80;99.90;;;;;;5057198;28;20033;-66
2022/11/27 09:06:11;;;;;;;8.55;4.25;;;7.90;99.90;;;;;;5056957;28;20109;-66
2022/11/27 09:08:41;;;;;;;7.50;4.10;;;7.80;99.90;;;;;;5057009;28;20025;-64
2022/11/27 09:11:09;;;;;;;8.10;4.50;;;7.80;99.90;;;;;;5056937;28;20033;-66
2022/11/27 09:13:36;;;;;;;7.63;4.05;;;7.80;99.90;;;;;;5057676;28;20294;-63
2022/11/27 09:16:04;;;;;;;11.50;4.13;;;8.30;99.90;;;;;;5057660;28;20064;-64
2022/11/27 09:18:30;;;;;;;9.20;4.13;;;9.30;99.90;;;;;;5056822;28;20025;-64
2022/11/27 09:21:00;;;;;;;6.85;3.58;;;9.40;99.90;;;;;;5057488;28;20045;-65
2022/11/27 09:23:27;;;;;;;11.93;4.28;;;8.60;99.90;;;;;;5056961;28;20060;-66
2022/11/27 09:25:53;;;;;;;9.23;4.50;;;8.40;99.90;;;;;;5040017;28;20037;-67
2022/11/27 09:28:19;;;;;;;10.70;4.25;;;8.50;99.90;;;;;;5056624;28;20355;-64
2022/11/27 09:30:45;;;;;;;8.30;4.03;;;8.40;99.90;;;;;;5056646;28;20029;-65
2022/11/27 09:33:11;;;;;;;6.18;3.78;;;8.40;99.90;;;;;;5056561;28;20472;-64
2022/11/27 09:35:37;;;;;;;10.25;4.40;;;8.30;99.90;;;;;;5056521;28;20025;-62
2022/11/27 09:38:03;;;;;;;9.90;3.88;;;8.30;99.90;;;;;;5056094;28;20044;-63
2022/11/27 09:40:29;;;;;;;7.65;4.13;;;8.00;99.90;;;;;;5023425;28;20037;-67
2022/11/27 09:43:01;;;;;;;9.50;4.03;;;8.00;99.90;;;;;;5056492;28;20123;-65
2022/11/27 09:45:27;;;;;;;9.70;4.13;;;8.10;99.90;;;;;;5057314;28;20033;-65
2022/11/27 09:48:07;;;;;;;10.48;4.45;;;8.10;99.90;;;;;;5040209;28;20301;-66
2022/11/27 09:50:39;;;;;;;11.18;4.38;;;8.10;99.90;;;;;;5057487;28;20029;-64
2022/11/27 09:53:24;;;;;;;8.75;4.47;;;8.10;99.90;;;;;;5056444;28;20082;-67
2022/11/27 09:55:53;;;;;;;5.57;3.55;;;8.30;99.90;;;;;;5056325;28;20044;-66
2022/11/27 09:58:42;;;;;;;7.18;4.10;;;8.30;99.90;;;;;;5057063;28;20028;-64
2022/11/27 10:01:16;;;;;;;12.27;5.20;;;8.10;99.90;;;;;;5056335;28;20049;-66
2022/11/27 10:03:44;;;;;;;9.18;4.95;;;8.20;99.90;;;;;;5056963;28;20048;-65
2022/11/27 10:06:42;;;;;;;8.88;3.90;;;8.30;99.90;;;;;;5056677;28;20072;-64
2022/11/27 10:09:28;;;;;;;7.97;3.95;;;8.10;99.90;;;;;;5056953;28;20036;-64
2022/11/27 10:11:53;;;;;;;8.73;4.68;;;8.10;99.90;;;;;;5056064;28;20482;-65
2022/11/27 10:14:58;;;;;;;10.05;3.97;;;8.10;99.90;;;;;;5056831;28;20045;-65
2022/11/27 10:17:34;;;;;;;8.52;4.22;;;8.20;99.90;;;;;;5056801;28;20404;-65
2022/11/27 10:20:22;;;;;;;7.80;4.00;;;8.20;99.90;;;;;;5056014;28;20416;-65
2022/11/27 10:22:58;;;;;;;10.90;4.53;;;8.10;99.90;;;;;;5056002;28;20460;-65
2022/11/27 10:25:47;;;;;;;9.35;4.40;;;8.00;99.90;;;;;;5055939;28;20295;-67
2022/11/27 10:28:28;;;;;;;8.90;4.55;;;8.10;99.90;;;;;;5056066;28;20040;-66
2022/11/27 10:31:00;;;;;;;9.85;4.65;;;8.20;99.90;;;;;;5039344;28;20116;-66
2022/11/27 10:33:50;;;;;;;9.77;4.93;;;8.20;99.90;;;;;;5039327;28;20033;-67
2022/11/27 10:36:31;;;;;;;8.32;4.85;;;8.20;99.90;;;;;;5055351;28;20316;-67
2022/11/27 10:38:59;;;;;;;8.68;4.78;;;8.30;99.90;;;;;;5056547;28;20029;-67
2022/11/27 10:41:38;;;;;;;6.82;3.88;;;8.30;99.90;;;;;;5055816;28;20086;-66
2022/11/27 10:44:21;;;;;;;10.82;4.47;;;8.40;99.90;;;;;;5056536;28;20098;-66
2022/11/27 10:46:49;;;;;;;6.22;3.95;;;8.60;99.90;;;;;;5055849;28;20072;-65
2022/11/27 10:49:15;;;;;;;9.63;4.30;;;8.60;99.90;;;;;;5056962;28;20128;-65
2022/11/27 10:51:41;;;;;;;9.20;4.82;;;8.40;99.90;;;;;;5059614;28;20116;-66
2022/11/27 10:54:26;;;;;;;10.23;5.35;;;8.30;99.90;;;;;;5060328;28;20040;-65
2022/11/27 10:57:07;;;;;;;8.55;4.38;;;8.40;99.90;;;;;;5059571;28;20460;-66
2022/11/27 11:00:00;;;;;;;9.60;4.70;;;8.40;99.90;;;;;;5059424;28;20329;-66
2022/11/27 11:02:34;;;;;;;9.15;4.70;;;8.30;99.90;;;;;;5059407;28;20043;-66
2022/11/27 11:05:23;;;;;;;8.68;4.60;;;8.30;99.90;;;;;;5059037;28;20052;-67
2022/11/27 11:07:58;;;;;;;10.40;5.10;;;8.50;99.90;;;;;;5060016;28;20045;-67
2022/11/27 11:10:42;;;;;;;11.77;4.90;;;8.60;99.90;;;;;;5042651;28;20021;-66
2022/11/27 11:13:19;;;;;;;12.40;5.15;;;8.70;99.90;;;;;;5060226;28;20075;-67
2022/11/27 11:15:53;;;;;;;8.45;4.80;;;8.90;99.90;;;;;;5059948;28;20029;-67
2022/11/27 11:18:22;;;;;;;8.05;4.75;;;8.90;99.90;;;;;;5059073;28;20041;-67
2022/11/27 11:20:50;;;;;;;10.30;4.75;;;8.80;99.90;;;;;;5060233;28;20103;-66
2022/11/27 11:23:27;;;;;;;11.25;4.40;;;8.80;99.90;;;;;;5058990;28;20036;-64
2022/11/27 11:25:56;;;;;;;5.90;3.92;;;8.90;99.90;;;;;;5059733;28;20072;-67
2022/11/27 11:28:23;;;;;;;8.75;4.40;;;8.90;99.90;;;;;;5058929;28;20036;-65
2022/11/27 11:30:58;;;;;;;10.65;4.32;;;8.90;99.90;;;;;;5042841;28;20086;-67
2022/11/27 11:33:25;;;;;;;9.00;4.43;;;9.00;99.90;;;;;;5059797;28;20025;-66
2022/11/27 11:35:56;;;;;;;7.60;3.90;;;9.00;99.90;;;;;;5059465;28;20116;-67
2022/11/27 11:38:28;;;;;;;9.85;5.20;;;9.10;99.90;;;;;;5059019;28;20029;-67
2022/11/27 11:41:05;;;;;;;7.30;4.00;;;9.40;99.90;;;;;;5058780;28;20041;-66
2022/11/27 11:43:34;;;;;;;8.48;4.15;;;9.20;99.90;;;;;;5058857;28;20029;-67
2022/11/27 11:46:21;;;;;;;6.05;4.13;;;9.10;99.90;;;;;;5059295;28;20032;-67
2022/11/27 11:48:56;;;;;;;8.95;4.43;;;8.90;99.90;;;;;;5058645;28;20044;-67
2022/11/27 11:51:57;;;;;;;5.72;3.80;;;8.70;99.90;;;;;;5059074;28;20025;-67
2022/11/27 11:54:52;;;;;;;10.63;4.38;;;8.70;99.90;;;;;;5058424;28;20082;-67
2022/11/27 11:57:38;;;;;;;10.20;4.55;;;8.80;99.90;;;;;;5058347;28;20037;-67
2022/11/27 12:00:21;;;;;;;6.97;3.85;;;8.70;99.90;;;;;;5058440;28;20041;-67
2022/11/27 12:03:11;;;;;;;7.75;4.72;;;8.80;99.90;;;;;;5059064;28;20093;-68
2022/11/27 12:05:54;;;;;;;9.50;4.60;;;8.90;99.90;;;;;;5058150;28;20102;-67
2022/11/27 12:08:39;;;;;;;;;;;8.70;99.90;;;;;;5058881;28;20059;-66
2022/11/27 12:11:07;;;;;;;6.50;4.40;;;8.70;99.90;;;;;;5058298;28;19909;-67
2022/11/27 12:13:55;;;;;;;7.78;4.50;;;8.70;99.90;;;;;;5058161;28;20028;-67
2022/11/27 12:16:38;;;;;;;9.80;4.45;;;8.70;99.90;;;;;;5059360;28;20108;-68
2022/11/27 12:19:27;;;;;;;7.90;4.60;;;8.80;99.90;;;;;;5058129;28;20063;-67
2022/11/27 12:22:09;;;;;;;7.47;4.55;;;8.80;99.90;;;;;;5041317;28;20083;-66
2022/11/27 12:25:03;;;;;;;6.82;4.10;;;8.80;99.90;;;;;;5058651;28;20296;-68
2022/11/27 12:27:55;;;;;;;7.25;4.60;;;8.90;99.90;;;;;;5058523;28;20119;-67
2022/11/27 12:30:46;;;;;;;6.82;4.20;;;9.00;99.90;;;;;;5058590;28;20056;-66
2022/11/27 12:33:34;;;;;;;9.02;4.88;;;9.00;99.90;;;;;;5057969;28;20089;-67
2022/11/27 12:36:34;;;;;;;8.45;4.95;;;9.00;99.90;;;;;;5057615;28;20045;-66
2022/11/27 12:38:59;;;;;;;9.00;4.55;;;9.20;99.90;;;;;;5058367;28;20025;-67
2022/11/27 12:42:01;;;;;;;9.57;5.22;;;9.20;99.90;;;;;;5057520;28;20020;-68
2022/11/27 12:44:32;;;;;;;9.40;4.53;;;9.00;99.90;;;;;;5057455;28;20037;-68
2022/11/27 12:47:21;;;;;;;7.22;4.50;;;9.00;99.90;;;;;;5057383;28;20048;-65
2022/11/27 12:49:59;;;;;;;6.90;4.30;;;9.00;99.90;;;;;;5057603;28;20029;-68
2022/11/27 12:52:33;;;;;;;7.43;4.78;;;9.00;99.90;;;;;;5040681;28;20028;-68
2022/11/27 12:55:03;;;;;;;12.95;5.30;;;8.90;99.90;;;;;;5057262;28;20327;-65
2022/11/27 12:57:55;;;;;;;8.55;5.03;;;8.90;99.90;;;;;;5057915;28;20466;-67
2022/11/27 13:00:28;;;;;;;7.57;5.10;;;9.00;99.90;;;;;;5057196;28;20028;-67
2022/11/27 13:03:05;;;;;;;7.82;4.70;;;9.10;99.90;;;;;;5057889;28;20041;-65
2022/11/27 13:05:40;;;;;;;11.52;5.28;;;9.20;99.90;;;;;;5056678;28;20114;-66
2022/11/27 13:08:22;;;;;;;7.40;5.20;;;9.20;99.90;;;;;;5057685;28;20032;-67
2022/11/27 13:11:08;;;;;;;10.07;5.70;;;9.20;99.90;;;;;;5040329;28;20344;-64
2022/11/27 13:13:41;;;;;;;8.18;4.95;;;9.30;99.90;;;;;;5057037;28;20024;-68
2022/11/27 13:16:20;;;;;;;9.23;4.60;;;9.40;99.90;;;;;;5056820;28;20033;-65
2022/11/27 13:19:15;;;;;;;8.18;4.65;;;9.20;99.90;;;;;;5057592;28;20098;-65